Time;durP1;ratioP1;P1;durP2;ratioP2;P2;SDS_P1;SDS_P2;PMS_P1;PMS_P2;Temp;Humidity;BMP_temperature;BMP_pressure;BME280_temperature;BME280_humidity;BME280_pressure;Samples;Min_cycle;Max_cycle;Signal;HPM_P1;HPM_P2
2024/03/16 00:02:00;;;;;;;37.30;5.78;;;;;;;9.30;100.00;101035.66;5093311;28;20425;-73
2024/03/16 00:04:26;;;;;;;45.58;5.75;;;;;;;9.22;100.00;101046.91;5093061;28;20511;-73
2024/03/16 00:06:52;;;;;;;49.10;6.75;;;;;;;9.20;100.00;101056.00;5093380;28;20035;-73
2024/03/16 00:09:18;;;;;;;42.67;6.20;;;;;;;9.16;100.00;101064.19;5093011;28;20042;-73
2024/03/16 00:11:43;;;;;;;34.25;5.32;;;;;;;9.09;100.00;101060.38;5074659;28;20067;-75
2024/03/16 00:14:09;;;;;;;25.00;4.15;;;;;;;8.95;100.00;101063.28;5074796;28;20020;-74
2024/03/16 00:16:34;;;;;;;24.63;3.55;;;;;;;8.83;100.00;101065.94;5092943;28;20380;-74
2024/03/16 00:18:59;;;;;;;23.35;3.63;;;;;;;8.77;100.00;101071.72;5092846;28;20491;-74
2024/03/16 00:21:24;;;;;;;17.83;2.70;;;;;;;8.69;100.00;101079.47;5093399;28;20429;-74
2024/03/16 00:23:50;;;;;;;16.83;2.80;;;;;;;8.60;100.00;101088.16;5092893;28;20036;-74
2024/03/16 00:26:15;;;;;;;12.10;2.00;;;;;;;8.52;100.00;101088.72;5092934;28;20127;-74
2024/03/16 00:28:40;;;;;;;20.80;3.38;;;;;;;8.45;100.00;101100.78;5092684;28;20161;-75
2024/03/16 00:31:06;;;;;;;19.35;2.95;;;;;;;8.40;100.00;101110.88;5092877;28;20422;-74
2024/03/16 00:33:31;;;;;;;16.95;2.60;;;;;;;8.33;100.00;101110.50;5092488;28;20024;-75
2024/03/16 00:35:57;;;;;;;11.23;2.50;;;;;;;8.29;100.00;101115.19;5092923;28;20466;-75
2024/03/16 00:38:24;;;;;;;10.13;2.67;;;;;;;8.27;100.00;101127.72;5092630;28;20061;-74
2024/03/16 00:40:49;;;;;;;18.08;2.95;;;;;;;8.26;100.00;101127.84;5092536;28;20035;-74
2024/03/16 00:43:18;;;;;;;13.95;2.58;;;;;;;8.24;100.00;101132.41;5074785;28;20040;-74
2024/03/16 00:45:43;;;;;;;12.05;2.50;;;;;;;8.17;100.00;101131.19;5092435;28;20020;-74
2024/03/16 00:48:09;;;;;;;12.52;2.90;;;;;;;8.15;100.00;101133.97;5093092;28;20035;-74
2024/03/16 00:50:34;;;;;;;15.43;2.20;;;;;;;8.10;100.00;101144.88;5092654;28;20032;-75
2024/03/16 00:52:59;;;;;;;7.95;1.92;;;;;;;8.10;100.00;101141.41;5093150;28;20039;-74
2024/03/16 00:55:25;;;;;;;10.88;2.38;;;;;;;8.06;100.00;101155.84;5093000;28;20030;-75
2024/03/16 00:57:51;;;;;;;15.70;3.58;;;;;;;7.98;100.00;101155.56;5094152;28;20468;-74
2024/03/16 01:00:18;;;;;;;11.50;2.97;;;;;;;7.82;100.00;101156.69;5094637;28;20110;-75
2024/03/16 01:02:43;;;;;;;10.63;2.45;;;;;;;7.64;100.00;101171.31;5076287;28;20024;-75
2024/03/16 01:05:09;;;;;;;10.75;2.60;;;;;;;7.47;100.00;101176.03;5093399;28;20056;-75
2024/03/16 01:07:34;;;;;;;11.95;2.58;;;;;;;7.30;100.00;101184.31;5093921;28;20031;-74
2024/03/16 01:10:00;;;;;;;6.57;1.80;;;;;;;7.14;100.00;101188.06;5093985;28;20066;-73
2024/03/16 01:12:25;;;;;;;6.55;2.28;;;;;;;7.03;100.00;101191.47;5093433;28;20044;-74
2024/03/16 01:14:51;;;;;;;8.00;2.47;;;;;;;6.93;100.00;101195.72;5075066;28;20034;-74
2024/03/16 01:17:16;;;;;;;11.65;2.53;;;;;;;6.90;100.00;101195.94;5092543;28;20487;-74
2024/03/16 01:19:43;;;;;;;9.82;3.72;;;;;;;6.87;100.00;101196.13;5092331;28;20036;-74
2024/03/16 01:22:08;;;;;;;9.57;2.65;;;;;;;6.85;100.00;101200.66;5074648;28;20359;-74
2024/03/16 01:24:33;;;;;;;11.63;2.80;;;;;;;6.84;100.00;101207.78;5093094;28;20024;-74
2024/03/16 01:26:59;;;;;;;10.30;2.65;;;;;;;6.84;100.00;101221.00;5073863;28;20553;-74
2024/03/16 01:29:24;;;;;;;13.45;3.55;;;;;;;6.83;100.00;101218.47;5092016;28;20098;-74
2024/03/16 01:31:50;;;;;;;9.20;3.00;;;;;;;6.85;100.00;101219.19;5092215;28;20032;-74
2024/03/16 01:34:16;;;;;;;11.73;2.83;;;;;;;6.84;100.00;101222.81;5091943;28;20020;-74
2024/03/16 01:36:41;;;;;;;16.17;3.28;;;;;;;6.85;100.00;101232.41;5091795;28;20414;-74
2024/03/16 01:39:11;;;;;;;15.50;3.50;;;;;;;6.85;100.00;101235.94;5091847;28;20028;-73
2024/03/16 01:41:36;;;;;;;15.57;3.55;;;;;;;6.85;100.00;101237.69;5092180;28;20031;-73
2024/03/16 01:44:12;;;;;;;13.05;3.13;;;;;;;6.83;100.00;101239.63;5073581;28;20043;-74
2024/03/16 01:46:41;;;;;;;17.75;4.00;;;;;;;6.82;100.00;101237.91;5092347;28;20105;-74
2024/03/16 01:49:08;;;;;;;21.30;2.67;;;;;;;6.78;100.00;101244.38;5091744;28;20042;-74
2024/03/16 01:51:36;;;;;;;13.93;3.03;;;;;;;6.71;100.00;101252.72;5091628;28;20468;-74
2024/03/16 01:54:01;;;;;;;10.70;2.47;;;;;;;6.66;100.00;101264.56;5091490;28;20036;-73
2024/03/16 01:56:26;;;;;;;18.48;3.15;;;;;;;6.60;100.00;101273.75;5092014;28;20089;-74
2024/03/16 01:58:52;;;;;;;17.10;2.33;;;;;;;6.55;100.00;101275.00;5091532;28;20063;-74
2024/03/16 02:01:17;;;;;;;12.40;1.92;;;;;;;6.50;100.00;101281.44;5073751;28;20036;-74
2024/03/16 02:03:43;;;;;;;11.82;1.80;;;;;;;6.47;100.00;101280.81;5091386;28;20024;-77
2024/03/16 02:06:08;;;;;;;9.07;1.95;;;;;;;6.40;100.00;101280.34;5073048;28;20028;-74
2024/03/16 02:08:33;;;;;;;18.05;1.85;;;;;;;6.37;100.00;101288.50;5091440;28;20028;-74
2024/03/16 02:10:59;;;;;;;15.13;2.50;;;;;;;6.33;100.00;101302.88;5091244;28;20056;-74
2024/03/16 02:13:24;;;;;;;7.82;1.50;;;;;;;6.30;100.00;101303.03;5091218;28;20028;-73
2024/03/16 02:15:49;;;;;;;10.98;1.63;;;;;;;6.30;100.00;101305.69;5091829;28;20570;-74
2024/03/16 02:18:15;;;;;;;8.10;2.33;;;;;;;6.29;100.00;101307.50;5095079;28;20455;-74
2024/03/16 02:20:41;;;;;;;11.20;1.85;;;;;;;6.29;100.00;101311.94;5095105;28;20028;-74
2024/03/16 02:23:06;;;;;;;12.38;1.77;;;;;;;6.28;100.00;101316.38;5095481;28;20028;-74
2024/03/16 02:25:32;;;;;;;10.80;1.77;;;;;;;6.26;100.00;101323.56;5094899;28;20031;-74
2024/03/16 02:27:57;;;;;;;14.50;1.80;;;;;;;6.24;100.00;101322.81;5095158;28;20115;-74
2024/03/16 02:30:22;;;;;;;9.50;1.35;;;;;;;6.23;100.00;101322.91;5094971;28;20016;-74
2024/03/16 02:32:48;;;;;;;10.75;1.40;;;;;;;6.18;100.00;101321.41;5094906;28;20031;-74
2024/03/16 02:35:14;;;;;;;14.25;2.47;;;;;;;6.17;100.00;101342.66;5094950;28;20050;-75
2024/03/16 02:37:39;;;;;;;6.22;1.30;;;;;;;6.16;100.00;101330.38;5094848;28;20024;-74
2024/03/16 02:40:05;;;;;;;6.20;1.30;;;;;;;6.14;100.00;101338.41;5076304;28;20035;-74
2024/03/16 02:42:31;;;;;;;11.20;1.67;;;;;;;6.13;100.00;101341.97;5076726;28;20028;-74
2024/03/16 02:44:56;;;;;;;8.50;1.38;;;;;;;6.11;100.00;101348.31;5094580;28;20101;-74
2024/03/16 02:47:21;;;;;;;5.20;1.17;;;;;;;6.10;100.00;101354.56;5076478;28;20395;-74
2024/03/16 02:49:49;;;;;;;10.07;1.08;;;;;;;6.09;100.00;101356.34;5095071;28;20046;-73
2024/03/16 02:52:15;;;;;;;9.73;1.42;;;;;;;6.10;100.00;101367.75;5094495;28;20040;-73
2024/03/16 02:54:40;;;;;;;10.35;1.23;;;;;;;6.08;100.00;101359.94;5094550;28;20024;-73
2024/03/16 02:57:05;;;;;;;5.68;1.33;;;;;;;6.10;100.00;101365.13;5094512;28;20528;-73
2024/03/16 02:59:31;;;;;;;9.30;1.15;;;;;;;6.10;100.00;101370.41;5094311;28;20093;-73
2024/03/16 03:01:57;;;;;;;7.70;1.83;;;;;;;6.10;100.00;101373.03;5094456;28;20107;-74
2024/03/16 03:04:23;;;;;;;15.80;2.03;;;;;;;6.11;100.00;101383.50;5076235;28;20036;-73
2024/03/16 03:06:48;;;;;;;11.32;1.40;;;;;;;6.13;100.00;101386.06;5094519;28;20057;-73
2024/03/16 03:09:14;;;;;;;9.55;1.40;;;;;;;6.12;100.00;101392.28;5094367;28;20201;-74
2024/03/16 03:11:39;;;;;;;11.32;1.50;;;;;;;6.09;100.00;101393.34;5094168;28;20044;-73
2024/03/16 03:14:06;;;;;;;7.75;1.35;;;;;;;6.09;100.00;101395.97;5094224;28;20107;-73
2024/03/16 03:16:31;;;;;;;9.07;1.40;;;;;;;6.08;100.00;101399.56;5094483;28;20030;-73
2024/03/16 03:18:57;;;;;;;9.27;1.48;;;;;;;6.08;100.00;101407.50;5094038;28;20023;-73
2024/03/16 03:21:22;;;;;;;9.57;2.05;;;;;;;6.06;100.00;101406.75;5094026;28;20043;-73
2024/03/16 03:23:47;;;;;;;10.52;1.13;;;;;;;6.06;100.00;101417.31;5094065;28;20032;-73
2024/03/16 03:26:13;;;;;;;9.57;1.58;;;;;;;6.07;100.00;101412.88;5094011;28;20107;-73
2024/03/16 03:28:39;;;;;;;9.77;1.80;;;;;;;6.03;100.00;101409.59;5092852;28;20034;-73
2024/03/16 03:31:06;;;;;;;9.45;1.40;;;;;;;6.03;100.00;101427.22;5094008;28;20559;-74
2024/03/16 03:33:32;;;;;;;11.93;1.33;;;;;;;5.99;100.00;101429.19;5094044;28;20020;-73
2024/03/16 03:35:59;;;;;;;12.18;1.42;;;;;;;5.95;100.00;101433.78;5094132;28;20383;-73
2024/03/16 03:38:24;;;;;;;11.40;1.05;;;;;;;5.94;100.00;101441.78;5075646;28;20115;-73
2024/03/16 03:40:50;;;;;;;7.82;1.60;;;;;;;5.91;100.00;101440.22;5093720;28;20108;-73
2024/03/16 03:43:21;;;;;;;9.82;1.20;;;;;;;5.91;100.00;101447.25;5093774;28;20494;-73
2024/03/16 03:45:50;;;;;;;17.77;1.60;;;;;;;5.92;100.00;101451.63;5075316;28;20039;-73
2024/03/16 03:48:35;;;;;;;16.27;1.70;;;;;;;5.93;100.00;101456.81;5093880;28;20523;-75
2024/03/16 03:51:02;;;;;;;7.35;1.50;;;;;;;5.93;100.00;101459.44;5093350;28;20494;-74
2024/03/16 03:53:28;;;;;;;11.05;1.48;;;;;;;5.94;100.00;101462.94;5093377;28;20388;-74
2024/03/16 03:55:54;;;;;;;14.13;1.50;;;;;;;5.95;100.00;101467.28;5075020;28;20031;-74
2024/03/16 03:58:20;;;;;;;19.25;2.08;;;;;;;5.92;100.00;101478.03;5093481;28;20056;-74
2024/03/16 04:00:47;;;;;;;20.38;2.15;;;;;;;5.85;100.00;101480.19;5093409;28;20546;-73
2024/03/16 04:03:12;;;;;;;15.68;1.98;;;;;;;5.79;100.00;101485.84;5075064;28;20123;-74
2024/03/16 04:05:38;;;;;;;14.25;2.75;;;;;;;5.76;100.00;101486.03;5093135;28;20060;-74
2024/03/16 04:08:06;;;;;;;14.68;2.15;;;;;;;5.77;100.00;101498.28;5093040;28;20028;-74
2024/03/16 04:10:36;;;;;;;12.70;1.95;;;;;;;5.77;100.00;101491.22;5074744;28;20031;-74
2024/03/16 04:13:02;;;;;;;10.77;1.50;;;;;;;5.76;100.00;101496.59;5093130;28;20460;-77
2024/03/16 04:15:28;;;;;;;14.88;1.67;;;;;;;5.74;100.00;101501.13;5093075;28;20077;-74
2024/03/16 04:17:53;;;;;;;20.42;2.00;;;;;;;5.74;100.00;101503.75;5093087;28;20157;-74
2024/03/16 04:20:19;;;;;;;9.15;1.60;;;;;;;5.77;100.00;101514.97;5092799;28;20051;-74
2024/03/16 04:22:45;;;;;;;21.48;1.77;;;;;;;5.81;100.00;101511.22;5074674;28;20419;-74
2024/03/16 04:25:14;;;;;;;9.77;1.75;;;;;;;5.89;100.00;101525.75;5093178;28;20032;-74
2024/03/16 04:27:40;;;;;;;12.82;1.58;;;;;;;5.95;100.00;101528.03;5093445;28;20052;-74
2024/03/16 04:30:06;;;;;;;9.60;1.58;;;;;;;5.98;100.00;101530.50;5092797;28;20024;-75
2024/03/16 04:32:33;;;;;;;11.25;2.08;;;;;;;5.98;100.00;101531.34;5092982;28;20054;-74
2024/03/16 04:34:59;;;;;;;15.40;1.85;;;;;;;5.97;100.00;101531.44;5093040;28;20046;-74
2024/03/16 04:37:24;;;;;;;13.30;2.70;;;;;;;5.94;100.00;101540.41;5092633;28;20232;-74
2024/03/16 04:39:49;;;;;;;16.05;3.10;;;;;;;5.92;100.00;101547.53;5092154;28;20388;-74
2024/03/16 04:42:15;;;;;;;14.70;1.80;;;;;;;5.94;100.00;101547.44;5092487;28;20047;-74
2024/03/16 04:44:40;;;;;;;5.70;1.33;;;;;;;5.92;100.00;101549.34;5092312;28;20043;-74
2024/03/16 04:47:06;;;;;;;7.63;1.23;;;;;;;5.89;100.00;101554.81;5092547;28;20119;-78
2024/03/16 04:49:32;;;;;;;6.80;1.83;;;;;;;5.82;100.00;101565.75;5092191;28;20093;-74
2024/03/16 04:51:58;;;;;;;6.07;1.50;;;;;;;5.76;100.00;101573.16;5092051;28;20543;-74
2024/03/16 04:54:23;;;;;;;7.43;1.60;;;;;;;5.68;100.00;101583.34;5092027;28;20189;-74
2024/03/16 04:56:49;;;;;;;12.45;2.40;;;;;;;5.60;100.00;101587.28;5092181;28;20409;-75
2024/03/16 04:59:14;;;;;;;7.18;1.83;;;;;;;5.54;100.00;101592.91;5092108;28;20460;-75
2024/03/16 05:01:40;;;;;;;13.50;1.98;;;;;;;5.50;100.00;101599.28;5091877;28;20142;-74
2024/03/16 05:04:05;;;;;;;9.13;1.30;;;;;;;5.47;100.00;101607.38;5092323;28;20055;-75
2024/03/16 05:06:36;;;;;;;8.15;1.70;;;;;;;5.45;100.00;101612.75;5091798;28;20024;-75
2024/03/16 05:09:06;;;;;;;11.02;1.40;;;;;;;5.43;100.00;101619.91;5092102;28;20080;-74
2024/03/16 05:11:34;;;;;;;7.97;1.50;;;;;;;5.44;100.00;101620.75;5091532;28;20052;-74
2024/03/16 05:14:00;;;;;;;14.60;2.25;;;;;;;5.44;100.00;101626.88;5091774;28;20088;-75
2024/03/16 05:16:26;;;;;;;13.85;2.30;;;;;;;5.46;100.00;101638.22;5057070;28;20028;-75
2024/03/16 05:18:51;;;;;;;18.27;2.55;;;;;;;5.47;100.00;101642.53;5091450;28;20031;-75
2024/03/16 05:21:17;;;;;;;10.73;1.85;;;;;;;5.49;100.00;101650.38;5091856;28;20078;-75
2024/03/16 05:23:45;;;;;;;17.77;2.83;;;;;;;5.50;100.00;101654.72;5091476;28;20472;-75
2024/03/16 05:26:11;;;;;;;10.90;2.50;;;;;;;5.50;100.00;101664.44;5091392;28;20490;-75
2024/03/16 05:28:38;;;;;;;15.85;2.60;;;;;;;5.48;100.00;101664.53;5091740;28;20353;-75
2024/03/16 05:31:04;;;;;;;14.52;2.17;;;;;;;5.47;100.00;101666.28;5091681;28;20028;-75
2024/03/16 05:33:30;;;;;;;13.57;2.40;;;;;;;5.47;100.00;101670.75;5091302;28;20035;-75
2024/03/16 05:35:55;;;;;;;16.17;2.97;;;;;;;5.45;100.00;101681.38;5091377;28;20036;-75
2024/03/16 05:38:20;;;;;;;14.70;2.20;;;;;;;5.47;100.00;101690.06;5073137;28;20039;-75
2024/03/16 05:40:47;;;;;;;24.77;1.75;;;;;;;5.44;100.00;101684.94;5091251;28;20097;-75
2024/03/16 05:43:12;;;;;;;14.27;1.65;;;;;;;5.43;100.00;101704.38;5091266;28;20040;-74
2024/03/16 05:45:37;;;;;;;12.18;2.30;;;;;;;5.42;100.00;101705.31;5091372;28;20020;-74
2024/03/16 05:48:03;;;;;;;7.00;1.58;;;;;;;5.43;100.00;101711.44;5091651;28;20111;-75
2024/03/16 05:50:28;;;;;;;5.38;1.10;;;;;;;5.43;100.00;101720.22;5073388;28;20024;-75
2024/03/16 05:52:54;;;;;;;4.95;1.25;;;;;;;5.45;100.00;101723.63;5095246;28;20032;-75
2024/03/16 05:55:20;;;;;;;7.47;1.40;;;;;;;5.48;100.00;101730.53;5095425;28;20028;-75
2024/03/16 05:57:45;;;;;;;10.90;1.50;;;;;;;5.50;100.00;101730.44;5095975;28;20039;-74
2024/03/16 06:00:14;;;;;;;6.47;1.40;;;;;;;5.54;100.00;101737.22;5095562;28;20545;-74
2024/03/16 06:02:40;;;;;;;8.07;1.80;;;;;;;5.57;100.00;101740.56;5095829;28;20028;-74
2024/03/16 06:05:06;;;;;;;9.32;1.63;;;;;;;5.59;100.00;101746.59;5095851;28;20542;-74
2024/03/16 06:07:31;;;;;;;12.38;2.10;;;;;;;5.60;100.00;101750.13;5095485;28;20115;-74
2024/03/16 06:09:57;;;;;;;11.32;1.95;;;;;;;5.60;100.00;101750.13;5095335;28;20111;-74
2024/03/16 06:12:23;;;;;;;9.18;1.83;;;;;;;5.60;100.00;101768.59;5095087;28;20083;-75
2024/03/16 06:14:49;;;;;;;18.58;2.15;;;;;;;5.60;100.00;101766.81;5095459;28;20027;-74
2024/03/16 06:17:15;;;;;;;5.10;1.40;;;;;;;5.60;100.00;101779.16;5094704;28;20031;-74
2024/03/16 06:19:40;;;;;;;10.80;1.90;;;;;;;5.60;100.00;101787.94;5095030;28;20422;-74
2024/03/16 06:22:07;;;;;;;8.65;1.73;;;;;;;5.60;100.00;101787.94;5095283;28;20035;-74
2024/03/16 06:24:33;;;;;;;4.63;1.33;;;;;;;5.61;100.00;101805.47;5095029;28;20031;-75
2024/03/16 06:27:05;;;;;;;5.57;1.20;;;;;;;5.58;100.00;101813.56;5076687;28;20028;-75
2024/03/16 06:29:31;;;;;;;5.72;1.70;;;;;;;5.53;100.00;101820.03;5095377;28;20020;-74
2024/03/16 06:32:05;;;;;;;7.38;1.45;;;;;;;5.46;100.00;101822.13;5095229;28;20129;-74
2024/03/16 06:34:31;;;;;;;6.50;1.30;;;;;;;5.42;100.00;101828.50;5095066;28;20054;-75
2024/03/16 06:36:57;;;;;;;6.28;1.50;;;;;;;5.40;100.00;101833.00;5094385;28;20541;-74
2024/03/16 06:39:23;;;;;;;8.10;1.35;;;;;;;5.38;100.00;101841.00;5094657;28;20040;-78
2024/03/16 06:41:49;;;;;;;6.28;1.55;;;;;;;5.39;100.00;101845.38;5094631;28;20103;-74
2024/03/16 06:44:15;;;;;;;15.30;1.75;;;;;;;5.41;100.00;101850.56;5094562;28;20074;-74
2024/03/16 06:46:40;;;;;;;8.93;1.42;;;;;;;5.44;100.00;101859.16;5095000;28;20035;-74
2024/03/16 06:49:06;;;;;;;7.10;1.92;;;;;;;5.46;100.00;101867.00;5094563;28;20070;-74
2024/03/16 06:51:31;;;;;;;16.83;1.58;;;;;;;5.50;100.00;101873.84;5094716;28;20487;-74
2024/03/16 06:53:56;;;;;;;9.82;1.40;;;;;;;5.51;100.00;101864.13;5094590;28;20044;-74
2024/03/16 06:56:22;;;;;;;9.85;1.50;;;;;;;5.51;100.00;101874.69;5076482;28;20097;-74
2024/03/16 06:58:47;;;;;;;13.18;2.33;;;;;;;5.53;100.00;101880.75;5094498;28;20032;-74
2024/03/16 07:01:13;;;;;;;10.85;2.03;;;;;;;5.53;100.00;101878.09;5094415;28;20042;-74
2024/03/16 07:03:39;;;;;;;8.45;1.48;;;;;;;5.58;100.00;101887.50;5094278;28;20472;-75
2024/03/16 07:06:06;;;;;;;8.77;1.40;;;;;;;5.63;100.00;101884.59;5094419;28;20186;-74
2024/03/16 07:08:32;;;;;;;6.50;1.15;;;;;;;5.72;100.00;101892.03;5094478;28;20055;-74
2024/03/16 07:10:57;;;;;;;10.35;1.75;;;;;;;5.79;100.00;101896.06;5094227;28;20109;-74
2024/03/16 07:13:24;;;;;;;7.00;1.40;;;;;;;5.82;100.00;101895.03;5094337;28;20123;-74
2024/03/16 07:15:50;;;;;;;9.25;1.88;;;;;;;5.90;100.00;101905.19;5075837;28;20476;-74
2024/03/16 07:18:16;;;;;;;11.60;1.30;;;;;;;5.98;100.00;101895.94;5093950;28;20027;-74
2024/03/16 07:20:41;;;;;;;14.10;1.77;;;;;;;6.06;100.00;101897.31;5093803;28;20028;-74
2024/03/16 07:23:07;;;;;;;12.25;1.73;;;;;;;6.15;100.00;101907.38;5093992;28;20032;-74
2024/03/16 07:25:32;;;;;;;7.97;1.30;;;;;;;6.25;100.00;101910.38;5075850;28;20055;-74
2024/03/16 07:27:58;;;;;;;18.05;2.65;;;;;;;6.32;100.00;101915.22;5075595;28;20387;-74
2024/03/16 07:30:24;;;;;;;9.40;1.50;;;;;;;6.40;100.00;101921.88;5093921;28;20051;-74
2024/03/16 07:32:49;;;;;;;9.73;1.98;;;;;;;6.45;100.00;101925.97;5093722;28;20028;-74
2024/03/16 07:35:16;;;;;;;7.43;1.50;;;;;;;6.43;100.00;101937.56;5093883;28;20039;-75
2024/03/16 07:37:42;;;;;;;9.68;1.95;;;;;;;6.41;100.00;101944.75;5093246;28;20063;-75
2024/03/16 07:40:13;;;;;;;11.80;1.77;;;;;;;6.42;100.00;101949.06;5093721;28;20060;-74
2024/03/16 07:42:40;;;;;;;7.97;1.63;;;;;;;6.47;100.00;101949.69;5093708;28;20024;-75
2024/03/16 07:45:06;;;;;;;8.38;1.73;;;;;;;6.50;100.00;101952.16;5093395;28;20032;-74
2024/03/16 07:47:32;;;;;;;13.63;1.77;;;;;;;6.54;100.00;101951.06;5075530;28;20024;-79
2024/03/16 07:49:57;;;;;;;7.20;1.35;;;;;;;6.60;100.00;101958.66;5075203;28;20337;-75
2024/03/16 07:52:22;;;;;;;9.63;1.83;;;;;;;6.70;100.00;101958.97;5093427;28;20120;-75
2024/03/16 07:54:48;;;;;;;9.65;1.80;;;;;;;6.74;100.00;101964.97;5093454;28;20039;-75
2024/03/16 07:57:14;;;;;;;9.65;1.48;;;;;;;6.77;100.00;101959.50;5093333;28;20394;-75
2024/03/16 07:59:39;;;;;;;4.20;0.90;;;;;;;6.84;100.00;101959.06;5093099;28;20032;-75
2024/03/16 08:02:06;;;;;;;5.95;1.20;;;;;;;6.93;100.00;101967.41;5093085;28;20086;-75
2024/03/16 08:04:33;;;;;;;4.40;1.48;;;;;;;6.97;100.00;101969.78;5093297;28;20032;-75
2024/03/16 08:06:59;;;;;;;7.28;1.85;;;;;;;7.07;100.00;101975.41;5092880;28;20115;-76
2024/03/16 08:09:24;;;;;;;7.32;0.90;;;;;;;7.10;100.00;101977.84;5092770;28;20048;-75
2024/03/16 08:11:49;;;;;;;5.35;1.42;;;;;;;7.13;100.00;101977.69;5092567;28;20405;-74
2024/03/16 08:14:15;;;;;;;9.32;1.23;;;;;;;7.19;100.00;101981.78;5092175;28;20048;-74
2024/03/16 08:16:40;;;;;;;7.32;1.50;;;;;;;7.19;100.00;101981.78;5093004;28;20028;-74
2024/03/16 08:19:05;;;;;;;9.23;1.00;;;;;;;7.20;100.00;101983.50;5092712;28;20487;-74
2024/03/16 08:21:32;;;;;;;9.40;1.67;;;;;;;7.26;100.00;101984.94;5092895;28;20024;-74
2024/03/16 08:23:57;;;;;;;7.80;1.25;;;;;;;7.27;100.00;101992.78;5092682;28;20043;-74
2024/03/16 08:26:23;;;;;;;9.43;1.30;;;;;;;7.28;100.00;101988.34;5093064;28;20065;-73
2024/03/16 08:28:48;;;;;;;5.05;1.15;;;;;;;7.28;100.00;101996.28;5092441;28;20032;-75
2024/03/16 08:31:13;;;;;;;8.45;1.35;;;;;;;7.35;100.00;101994.97;5092527;28;20024;-73
2024/03/16 08:33:39;;;;;;;9.85;1.45;;;;;;;7.48;100.00;102001.25;5092569;28;20020;-74
2024/03/16 08:36:07;;;;;;;5.07;1.05;;;;;;;7.63;100.00;102014.53;5092328;28;20023;-76
2024/03/16 08:38:33;;;;;;;8.65;1.40;;;;;;;7.71;100.00;102021.06;5092072;28;20480;-73
2024/03/16 08:40:58;;;;;;;7.72;1.00;;;;;;;7.77;100.00;102035.75;5092484;28;20044;-73
2024/03/16 08:43:24;;;;;;;3.42;1.27;;;;;;;7.72;100.00;102030.72;5092211;28;20031;-73
2024/03/16 08:45:49;;;;;;;4.78;1.33;;;;;;;7.87;100.00;102034.25;5092135;28;20031;-75
2024/03/16 08:48:14;;;;;;;7.25;1.00;;;;;;;7.99;100.00;102034.47;5092281;28;20051;-74
2024/03/16 08:50:41;;;;;;;6.50;1.23;;;;;;;8.05;100.00;102044.72;5091960;28;20483;-76
2024/03/16 08:53:06;;;;;;;5.88;1.02;;;;;;;8.24;100.00;102044.41;5092221;28;20035;-74
2024/03/16 08:55:32;;;;;;;4.53;1.13;;;;;;;8.40;100.00;102046.97;5092035;28;20039;-73
2024/03/16 08:57:58;;;;;;;4.88;1.02;;;;;;;8.52;100.00;102053.34;5073620;28;20409;-73
2024/03/16 09:00:25;;;;;;;6.15;1.25;;;;;;;8.49;100.00;102065.00;5091975;28;20020;-73
2024/03/16 09:02:52;;;;;;;8.75;1.10;;;;;;;8.49;100.00;102062.34;5091827;28;20107;-73
2024/03/16 09:05:17;;;;;;;5.05;0.85;;;;;;;8.58;100.00;102069.75;5091937;28;20024;-73
2024/03/16 09:07:43;;;;;;;4.85;0.90;;;;;;;8.77;100.00;102079.19;5091852;28;20096;-75
2024/03/16 09:10:10;;;;;;;4.05;1.00;;;;;;;8.91;100.00;102080.97;5091849;28;20472;-73
2024/03/16 09:12:36;;;;;;;5.85;1.15;;;;;;;8.90;100.00;102085.44;5091641;28;20465;-74
2024/03/16 09:15:05;;;;;;;5.03;1.25;;;;;;;8.83;100.00;102089.41;5091759;28;20107;-73
2024/03/16 09:17:30;;;;;;;2.53;0.93;;;;;;;8.83;100.00;102086.75;5091675;28;20049;-73
2024/03/16 09:19:56;;;;;;;5.47;1.00;;;;;;;8.73;100.00;102094.47;5091525;28;20035;-74
2024/03/16 09:22:22;;;;;;;4.10;0.77;;;;;;;8.65;100.00;102099.41;5091878;28;20028;-73
2024/03/16 09:24:47;;;;;;;6.88;0.93;;;;;;;8.49;100.00;102096.81;5091571;28;20384;-73
2024/03/16 09:27:12;;;;;;;5.30;1.20;;;;;;;8.49;100.00;102107.44;5091174;28;20421;-74
2024/03/16 09:29:41;;;;;;;10.65;1.42;;;;;;;8.45;100.00;102112.09;5091506;28;20050;-74
2024/03/16 09:32:07;;;;;;;11.85;1.35;;;;;;;8.44;100.00;102120.16;5091779;28;20020;-74
2024/03/16 09:34:32;;;;;;;17.85;2.40;;;;;;;8.49;100.00;102123.34;5073220;28;20040;-73
2024/03/16 09:36:57;;;;;;;9.85;1.42;;;;;;;8.59;100.00;102132.47;5091485;28;20097;-74
2024/03/16 09:39:26;;;;;;;15.18;1.58;;;;;;;8.68;100.00;102130.19;5091694;28;20475;-74
2024/03/16 09:41:52;;;;;;;8.80;1.40;;;;;;;8.77;100.00;102129.63;5091319;28;20031;-74
2024/03/16 09:44:18;;;;;;;2.95;1.13;;;;;;;8.89;100.00;102134.16;5091178;28;20054;-73
2024/03/16 09:46:43;;;;;;;8.15;1.50;;;;;;;9.17;100.00;102135.91;5091625;28;20024;-74
2024/03/16 09:49:13;;;;;;;7.80;1.27;;;;;;;9.48;100.00;102149.88;5091436;28;20498;-73
2024/03/16 09:51:39;;;;;;;10.15;1.30;;;;;;;9.71;100.00;102148.34;5090480;28;20141;-76
2024/03/16 09:54:11;;;;;;;8.52;1.33;;;;;;;9.71;100.00;102155.47;5090573;28;20032;-74
2024/03/16 09:56:37;;;;;;;6.22;1.73;;;;;;;9.61;100.00;102160.53;5091239;28;20030;-74
2024/03/16 09:59:10;;;;;;;7.65;1.20;;;;;;;9.48;100.00;102160.50;5091193;28;20047;-74
2024/03/16 10:01:35;;;;;;;14.10;1.30;;;;;;;9.37;100.00;102162.16;5091620;28;20042;-74
2024/03/16 10:04:01;;;;;;;8.15;1.38;;;;;;;9.25;100.00;102171.75;5091420;28;20114;-74
2024/03/16 10:06:27;;;;;;;8.77;1.38;;;;;;;9.13;100.00;102174.22;5091303;28;20081;-72
2024/03/16 10:09:10;;;;;;;9.02;1.15;;;;;;;9.05;100.00;102171.22;5091191;28;20065;-73
2024/03/16 10:11:36;;;;;;;7.32;1.48;;;;;;;9.27;100.00;102178.69;5091124;28;20048;-72
2024/03/16 10:14:04;;;;;;;4.68;1.73;;;;;;;9.48;100.00;102192.38;5091665;28;20081;-74
2024/03/16 10:16:31;;;;;;;6.22;1.08;;;;;;;9.55;100.00;102198.13;5091706;28;20024;-72
2024/03/16 10:18:57;;;;;;;10.13;1.33;;;;;;;9.75;100.00;102196.00;5091519;28;20035;-72
2024/03/16 10:21:22;;;;;;;8.32;1.10;;;;;;;9.79;100.00;102203.69;5091197;28;20102;-72
2024/03/16 10:23:47;;;;;;;4.63;1.10;;;;;;;9.98;100.00;102207.78;5091039;28;20051;-72
2024/03/16 10:26:13;;;;;;;6.63;1.73;;;;;;;10.08;100.00;102214.19;5091600;28;20085;-72
2024/03/16 10:28:42;;;;;;;3.15;0.82;;;;;;;10.32;100.00;102222.31;5090982;28;20069;-72
2024/03/16 10:31:11;;;;;;;8.55;1.48;;;;;;;10.12;100.00;102221.03;5072535;28;20024;-72
2024/03/16 10:33:38;;;;;;;6.28;1.75;;;;;;;9.80;100.00;102226.63;5072583;28;20410;-72
2024/03/16 10:36:04;;;;;;;7.95;2.00;;;;;;;9.37;100.00;102226.75;5091020;28;20102;-73
2024/03/16 10:38:31;;;;;;;9.48;1.70;;;;;;;8.95;100.00;102225.81;5076088;28;20178;-73
2024/03/16 10:41:00;;;;;;;11.57;1.95;;;;;;;8.74;100.00;102223.53;5094475;28;20456;-76
2024/03/16 10:43:30;;;;;;;13.95;2.22;;;;;;;8.68;100.00;102231.88;5094728;28;20066;-73
2024/03/16 10:45:57;;;;;;;11.70;1.90;;;;;;;8.62;100.00;102229.59;5094398;28;20505;-73
2024/03/16 10:48:23;;;;;;;3.92;1.30;;;;;;;8.62;100.00;102235.75;5076455;28;20406;-74
2024/03/16 10:50:48;;;;;;;8.15;1.38;;;;;;;8.60;100.00;102235.00;5094830;28;20020;-73
2024/03/16 10:53:16;;;;;;;6.40;1.10;;;;;;;8.77;100.00;102241.91;5094808;28;20079;-73
2024/03/16 10:55:43;;;;;;;6.68;1.50;;;;;;;9.03;100.00;102257.22;5094421;28;20068;-74
2024/03/16 10:58:27;;;;;;;17.35;2.95;;;;;;;9.29;100.00;102251.13;5094481;28;20340;-74
2024/03/16 11:01:02;;;;;;;10.23;1.83;;;;;;;9.48;100.00;102253.50;5094841;28;20305;-72
2024/03/16 11:03:31;;;;;;;7.25;1.50;;;;;;;9.64;100.00;102248.06;5094211;28;20042;-73
2024/03/16 11:06:18;;;;;;;3.33;0.88;;;;;;;10.03;100.00;102243.75;5094385;28;20047;-72
2024/03/16 11:08:45;;;;;;;9.75;1.10;;;;;;;10.39;100.00;102247.59;5094544;28;20016;-73
2024/03/16 11:11:15;;;;;;;11.05;1.40;;;;;;;10.73;100.00;102253.28;5094179;28;20048;-73
2024/03/16 11:13:59;;;;;;;9.60;1.40;;;;;;;11.02;100.00;102258.41;5094294;28;20081;-73
2024/03/16 11:16:33;;;;;;;7.95;1.48;;;;;;;11.20;100.00;102258.06;5094241;28;20028;-72
2024/03/16 11:19:00;;;;;;;14.82;1.95;;;;;;;11.32;100.00;102265.19;5093956;28;20456;-72